createdAt,value
2022-11-04T00:01:41.224Z,1.93
2022-11-04T00:04:08.186Z,1.20
2022-11-04T00:06:35.384Z,1.30
2022-11-04T00:09:02.680Z,1.50
2022-11-04T00:11:48.578Z,2.03
2022-11-04T00:14:15.702Z,3.60
2022-11-04T00:17:01.679Z,2.30
2022-11-04T00:19:28.964Z,2.27
2022-11-04T00:22:14.914Z,3.93
2022-11-04T00:25:00.274Z,2.53
2022-11-04T00:27:46.510Z,1.97
2022-11-04T00:30:13.581Z,1.50
2022-11-04T00:32:59.355Z,2.53
2022-11-04T00:35:26.452Z,2.00
2022-11-04T00:37:53.526Z,2.23
2022-11-04T00:40:20.619Z,2.23
2022-11-04T00:42:47.805Z,2.73
2022-11-04T00:45:15.167Z,3.37
2022-11-04T00:47:42.233Z,2.47
2022-11-04T00:50:09.789Z,2.17
2022-11-04T00:52:37.078Z,2.83
2022-11-04T00:55:04.393Z,2.10
2022-11-04T00:57:31.686Z,4.67
2022-11-04T00:59:59.051Z,3.53
2022-11-04T01:02:26.820Z,3.37
2022-11-04T01:04:54.034Z,3.90
2022-11-04T01:07:21.224Z,3.90
2022-11-04T01:09:49.394Z,4.60
2022-11-04T01:12:17.074Z,6.73
2022-11-04T01:14:44.288Z,5.13
2022-11-04T01:17:11.422Z,5.10
2022-11-04T01:19:38.552Z,4.50
2022-11-04T01:22:05.250Z,5.63
2022-11-04T01:24:31.925Z,4.83
2022-11-04T01:26:58.746Z,5.13
2022-11-04T01:29:25.695Z,5.53
2022-11-04T01:31:52.767Z,4.50
2022-11-04T01:34:20.114Z,5.00
2022-11-04T01:36:46.829Z,3.47
2022-11-04T01:39:14.684Z,4.20
2022-11-04T01:41:41.470Z,4.47
2022-11-04T01:44:42.339Z,3.30
2022-11-04T01:47:19.853Z,3.87
2022-11-04T01:49:51.912Z,3.97
2022-11-04T01:52:31.680Z,3.20
2022-11-04T01:55:02.662Z,4.53
2022-11-04T01:57:35.685Z,5.67
2022-11-04T02:00:06.302Z,4.27
2022-11-04T02:02:33.575Z,5.67
2022-11-04T02:05:00.335Z,4.93
2022-11-04T02:07:28.909Z,3.60
2022-11-04T02:09:56.034Z,3.20
2022-11-04T02:12:41.521Z,4.13
2022-11-04T02:15:08.650Z,4.93
2022-11-04T02:17:53.177Z,3.07
2022-11-04T02:20:29.089Z,7.37
2022-11-04T02:23:17.185Z,4.67
2022-11-04T02:26:11.552Z,4.77
2022-11-04T02:28:38.409Z,6.37
2022-11-04T02:31:13.981Z,5.20
2022-11-04T02:33:43.656Z,7.30
2022-11-04T02:36:15.588Z,7.73
2022-11-04T02:39:00.648Z,6.73
2022-11-04T02:41:30.268Z,12.13
2022-11-04T02:44:06.405Z,8.67
2022-11-04T02:46:36.474Z,6.07
2022-11-04T02:49:07.331Z,6.60
2022-11-04T02:51:40.415Z,5.40
2022-11-04T02:54:10.545Z,7.30
2022-11-04T02:56:40.762Z,11.20
2022-11-04T02:59:14.603Z,9.63
2022-11-04T03:01:44.054Z,9.60
2022-11-04T03:04:15.918Z,8.23
2022-11-04T03:06:44.724Z,5.07
2022-11-04T03:09:12.949Z,9.90
2022-11-04T03:11:41.602Z,10.33
2022-11-04T03:14:11.645Z,8.00
2022-11-04T03:16:43.439Z,8.00
2022-11-04T03:19:10.593Z,8.60
2022-11-04T03:21:39.446Z,7.50
2022-11-04T03:24:06.897Z,9.73
2022-11-04T03:26:59.368Z,9.13
2022-11-04T03:29:55.160Z,6.77
2022-11-04T03:32:39.100Z,10.23
2022-11-04T03:35:06.908Z,9.83
2022-11-04T03:37:34.621Z,12.20
2022-11-04T03:40:01.867Z,12.73
2022-11-04T03:42:29.557Z,9.43
2022-11-04T03:44:57.768Z,9.73
2022-11-04T03:47:26.330Z,7.03
2022-11-04T03:49:56.823Z,7.90
2022-11-04T03:52:24.237Z,5.43
2022-11-04T03:54:51.337Z,7.23
2022-11-04T03:57:38.805Z,7.00
2022-11-04T04:00:10.320Z,10.37
2022-11-04T04:02:49.609Z,8.33
2022-11-04T04:05:25.546Z,5.63
2022-11-04T04:07:56.588Z,9.93
2022-11-04T04:10:40.419Z,5.03
2022-11-04T04:13:14.867Z,11.00
2022-11-04T04:16:02.240Z,8.90
2022-11-04T04:18:38.530Z,7.30
2022-11-04T04:21:10.868Z,4.73
2022-11-04T04:23:57.488Z,8.03
2022-11-04T04:26:43.607Z,5.97
2022-11-04T04:29:11.526Z,5.13
2022-11-04T04:31:57.773Z,6.30
2022-11-04T04:34:29.031Z,6.13
2022-11-04T04:37:04.121Z,8.87
2022-11-04T04:40:02.466Z,7.80
2022-11-04T04:42:54.706Z,6.63
2022-11-04T04:45:31.334Z,3.83
2022-11-04T04:47:58.579Z,8.30
2022-11-04T04:50:27.261Z,5.83
2022-11-04T04:52:55.225Z,5.03
2022-11-04T04:55:22.366Z,11.50
2022-11-04T04:57:49.463Z,4.07
2022-11-04T05:00:18.076Z,4.50
2022-11-04T05:02:47.076Z,3.17
2022-11-04T05:07:46.408Z,6.77
2022-11-04T05:10:14.360Z,5.77
2022-11-04T05:13:00.150Z,7.67
2022-11-04T05:15:27.763Z,3.87
2022-11-04T05:17:55.596Z,3.47
2022-11-04T05:20:23.097Z,7.83
2022-11-04T05:22:50.562Z,9.33
2022-11-04T05:25:18.088Z,6.13
2022-11-04T05:27:45.187Z,4.10
2022-11-04T05:30:12.395Z,4.93
2022-11-04T05:32:39.534Z,6.33
2022-11-04T05:35:06.912Z,5.73
2022-11-04T05:37:33.578Z,5.60
2022-11-04T05:40:00.359Z,4.40
2022-11-04T05:42:27.189Z,6.07
2022-11-04T05:44:53.901Z,10.53
2022-11-04T05:47:20.575Z,7.87
2022-11-04T05:49:47.385Z,4.37
2022-11-04T05:52:17.143Z,7.60
2022-11-04T05:54:43.920Z,6.97
2022-11-04T05:57:11.516Z,6.50
2022-11-04T05:59:38.674Z,5.57
2022-11-04T06:02:06.039Z,12.00
2022-11-04T06:04:33.485Z,5.97
2022-11-04T06:07:00.671Z,5.77
2022-11-04T06:09:39.781Z,6.10
2022-11-04T06:12:08.258Z,7.37
2022-11-04T06:14:35.352Z,14.80
2022-11-04T06:17:02.628Z,6.80
2022-11-04T06:19:29.897Z,6.03
2022-11-04T06:21:57.092Z,9.33
2022-11-04T06:24:24.193Z,5.67
2022-11-04T06:26:51.253Z,9.27
2022-11-04T06:29:18.695Z,8.47
2022-11-04T06:31:45.879Z,11.23
2022-11-04T06:34:12.970Z,7.97
2022-11-04T06:36:40.082Z,4.73
2022-11-04T06:39:07.211Z,11.57
2022-11-04T06:41:34.639Z,12.03
2022-11-04T06:44:01.745Z,8.70
2022-11-04T06:46:31.023Z,6.67
2022-11-04T06:48:58.124Z,6.87
2022-11-04T06:51:25.831Z,5.60
2022-11-04T06:53:52.973Z,6.20
2022-11-04T06:56:20.215Z,9.23
2022-11-04T06:58:54.314Z,3.83
2022-11-04T07:01:22.651Z,9.53
2022-11-04T07:03:50.824Z,13.73
2022-11-04T07:06:18.194Z,6.73
2022-11-04T07:08:45.548Z,7.27
2022-11-04T07:11:13.096Z,4.23
2022-11-04T07:13:41.191Z,7.80
2022-11-04T07:16:09.407Z,6.17
2022-11-04T07:18:36.710Z,20.93
2022-11-04T07:21:08.794Z,10.50
2022-11-04T07:23:37.328Z,4.17
2022-11-04T07:26:05.462Z,5.80
2022-11-04T07:28:32.543Z,4.53
2022-11-04T07:31:00.267Z,5.93
2022-11-04T07:33:27.882Z,4.27
2022-11-04T07:35:58.289Z,8.77
2022-11-04T07:38:25.740Z,6.77
2022-11-04T07:40:52.968Z,5.17
2022-11-04T07:43:20.071Z,12.97
2022-11-04T07:45:47.400Z,9.27
2022-11-04T07:48:14.547Z,5.50
2022-11-04T07:50:41.633Z,6.87
2022-11-04T07:53:09.031Z,4.37
2022-11-04T07:55:43.083Z,6.90
2022-11-04T07:58:10.575Z,6.33
2022-11-04T08:00:40.165Z,4.33
2022-11-04T08:03:07.452Z,4.93
2022-11-04T08:05:35.081Z,5.23
2022-11-04T08:08:02.354Z,6.67
2022-11-04T08:10:30.041Z,6.73
2022-11-04T08:12:57.530Z,11.67
2022-11-04T08:15:24.769Z,5.67
2022-11-04T08:17:52.061Z,7.83
2022-11-04T08:20:19.136Z,4.00
2022-11-04T08:22:46.413Z,4.40
2022-11-04T08:25:13.845Z,3.73
2022-11-04T08:27:41.101Z,6.87
2022-11-04T08:30:08.881Z,7.47
2022-11-04T08:32:36.032Z,10.13
2022-11-04T08:35:03.358Z,8.33
2022-11-04T08:37:30.501Z,4.80
2022-11-04T08:39:57.685Z,4.23
2022-11-04T08:42:26.133Z,3.77
2022-11-04T08:44:53.248Z,5.60
2022-11-04T08:47:20.382Z,4.13
2022-11-04T08:49:47.443Z,9.43
2022-11-04T08:52:14.540Z,4.80
2022-11-04T08:54:41.853Z,9.23
2022-11-04T08:57:09.345Z,6.57
2022-11-04T08:59:40.244Z,6.93
2022-11-04T09:02:09.904Z,10.20
2022-11-04T09:04:37.022Z,6.40
2022-11-04T09:07:08.218Z,7.50
2022-11-04T09:09:35.625Z,6.60
2022-11-04T09:12:02.753Z,6.63
2022-11-04T09:14:29.840Z,8.97
2022-11-04T09:16:56.961Z,5.60
2022-11-04T09:19:24.180Z,5.33
2022-11-04T09:21:51.302Z,8.80
2022-11-04T09:24:18.382Z,9.50
2022-11-04T09:26:45.517Z,3.97
2022-11-04T09:29:12.781Z,6.43
2022-11-04T09:31:40.497Z,5.70
2022-11-04T09:34:08.587Z,4.00
2022-11-04T09:36:37.505Z,7.53
2022-11-04T09:39:10.075Z,5.33
2022-11-04T09:41:37.201Z,7.70
2022-11-04T09:44:25.691Z,5.10
2022-11-04T09:46:54.333Z,8.53
2022-11-04T09:49:21.744Z,5.07
2022-11-04T09:51:56.556Z,6.03
2022-11-04T09:54:25.281Z,5.43
2022-11-04T09:56:53.194Z,12.57
2022-11-04T09:59:31.981Z,8.33
2022-11-04T10:01:59.608Z,12.43
2022-11-04T10:04:35.558Z,9.47
2022-11-04T10:07:11.286Z,5.07
2022-11-04T10:09:38.438Z,5.23
2022-11-04T10:12:24.574Z,4.17
2022-11-04T10:15:11.460Z,2.90
2022-11-04T10:17:38.523Z,8.60
2022-11-04T10:20:18.033Z,4.23
2022-11-04T10:23:07.777Z,10.47
2022-11-04T10:25:35.116Z,8.60
2022-11-04T10:28:03.011Z,4.87
2022-11-04T10:30:32.012Z,5.73
2022-11-04T10:33:14.389Z,10.00
2022-11-04T10:35:43.071Z,4.57
2022-11-04T10:38:24.978Z,3.05
2022-11-04T10:40:53.242Z,4.15
2022-11-04T10:43:27.206Z,6.35
2022-11-04T10:46:00.523Z,5.63
2022-11-04T10:48:49.137Z,4.07
2022-11-04T10:51:22.100Z,4.75
2022-11-04T10:53:56.807Z,13.77
2022-11-04T10:56:30.374Z,3.33
2022-11-04T10:58:58.059Z,5.00
2022-11-04T11:01:33.136Z,5.60
2022-11-04T11:04:01.361Z,6.85
2022-11-04T11:06:28.556Z,6.78
2022-11-04T11:08:58.091Z,4.70
2022-11-04T11:11:48.381Z,5.07
2022-11-04T11:14:30.958Z,4.90
2022-11-04T11:16:59.233Z,6.07
2022-11-04T11:19:26.646Z,7.87
2022-11-04T11:21:55.203Z,5.93
2022-11-04T11:24:23.767Z,9.30
2022-11-04T11:26:52.881Z,4.32
2022-11-04T11:29:24.921Z,8.53
2022-11-04T11:31:52.529Z,7.47
2022-11-04T11:34:22.638Z,5.53
2022-11-04T11:36:50.571Z,4.40
2022-11-04T11:39:21.913Z,4.77
2022-11-04T11:41:54.321Z,5.30
2022-11-04T11:44:21.858Z,5.22
2022-11-04T11:46:56.138Z,6.30
2022-11-04T11:49:27.140Z,8.50
2022-11-04T11:51:53.871Z,5.00
2022-11-04T11:54:33.744Z,6.63
2022-11-04T11:57:15.317Z,8.63
2022-11-04T12:03:17.691Z,8.30
2022-11-04T12:06:18.308Z,5.97
2022-11-04T12:09:17.456Z,5.27
2022-11-04T12:11:57.972Z,5.77
2022-11-04T12:14:31.104Z,5.40
2022-11-04T12:17:32.612Z,10.43
2022-11-04T12:20:21.090Z,9.23
2022-11-04T12:22:53.409Z,9.80
2022-11-04T12:25:46.842Z,7.22
2022-11-04T12:28:28.779Z,11.45
2022-11-04T12:31:24.727Z,8.50
2022-11-04T12:33:54.417Z,6.43
2022-11-04T12:36:47.604Z,10.73
2022-11-04T12:39:17.425Z,9.88
2022-11-04T12:42:20.172Z,7.70
2022-11-04T12:45:22.844Z,7.53
2022-11-04T12:47:49.622Z,6.53
2022-11-04T12:50:34.906Z,8.77
2022-11-04T12:53:16.350Z,7.47
2022-11-04T12:55:44.189Z,10.50
2022-11-04T12:58:29.373Z,10.35
2022-11-04T13:01:14.999Z,10.38
2022-11-04T13:04:14.746Z,11.45
2022-11-04T13:06:56.630Z,14.27
2022-11-04T13:09:50.975Z,5.97
2022-11-04T13:12:39.941Z,8.38
2022-11-04T13:15:18.644Z,6.88
2022-11-04T13:17:47.517Z,6.28
2022-11-04T13:20:26.464Z,3.05
2022-11-04T13:22:58.987Z,7.82
2022-11-04T13:25:40.604Z,7.50
2022-11-04T13:28:15.217Z,7.50
2022-11-04T13:30:51.189Z,8.27
2022-11-04T13:33:33.387Z,6.95
2022-11-04T13:36:13.122Z,4.70
2022-11-04T13:38:45.487Z,9.27
2022-11-04T13:41:42.435Z,7.30
2022-11-04T13:44:28.881Z,6.43
2022-11-04T13:47:01.481Z,4.63
2022-11-04T13:49:33.544Z,8.45
2022-11-04T13:52:12.490Z,5.85
2022-11-04T13:54:47.184Z,7.13
2022-11-04T13:57:18.059Z,5.18
2022-11-04T14:00:09.281Z,7.93
2022-11-04T14:02:44.401Z,6.15
2022-11-04T14:05:29.794Z,11.75
2022-11-04T14:07:59.697Z,6.63
2022-11-04T14:10:50.949Z,4.25
2022-11-04T14:13:41.143Z,4.10
2022-11-04T14:16:17.777Z,6.50
2022-11-04T14:18:49.263Z,6.43
2022-11-04T14:21:18.837Z,9.77
2022-11-04T14:23:48.893Z,3.28
2022-11-04T14:26:18.517Z,5.05
2022-11-04T14:29:02.067Z,4.03
2022-11-04T14:31:45.805Z,5.38
2022-11-04T14:34:36.550Z,6.90
2022-11-04T14:37:25.288Z,5.10
2022-11-04T14:39:57.668Z,6.20
2022-11-04T14:42:42.524Z,5.57
2022-11-04T14:45:18.239Z,3.80
2022-11-04T14:47:52.603Z,5.60
2022-11-04T14:50:24.239Z,5.32
2022-11-04T14:53:05.397Z,5.22
2022-11-04T14:55:33.023Z,7.00
2022-11-04T14:58:29.114Z,4.95
2022-11-04T15:00:59.894Z,6.78
2022-11-04T15:04:10.927Z,3.65
2022-11-04T15:06:34.895Z,3.67
2022-11-04T15:09:22.190Z,6.53
2022-11-04T15:12:07.517Z,8.80
2022-11-04T15:14:37.561Z,4.67
2022-11-04T15:17:04.791Z,6.60
2022-11-04T15:19:56.392Z,5.60
2022-11-04T15:22:24.217Z,7.80
2022-11-04T15:24:51.630Z,11.47
2022-11-04T15:27:24.422Z,6.03
2022-11-04T15:30:04.569Z,11.63
2022-11-04T15:32:32.280Z,5.33
2022-11-04T15:34:59.846Z,5.73
2022-11-04T15:37:28.918Z,9.17
2022-11-04T15:39:57.769Z,7.53
2022-11-04T15:42:40.658Z,8.90
2022-11-04T15:45:22.997Z,9.47
2022-11-04T15:48:10.101Z,7.70
2022-11-04T15:50:37.468Z,10.73
2022-11-04T15:53:10.500Z,9.87
2022-11-04T15:55:38.569Z,10.37
2022-11-04T15:58:05.470Z,6.70
2022-11-04T16:00:34.116Z,14.33
2022-11-04T16:03:01.708Z,10.87
2022-11-04T16:05:33.476Z,11.97
2022-11-04T16:08:21.134Z,11.47
2022-11-04T16:10:48.489Z,13.00
2022-11-04T16:13:18.199Z,10.07
2022-11-04T16:15:57.209Z,18.47
2022-11-04T16:18:32.089Z,9.00
2022-11-04T16:21:02.933Z,17.97
2022-11-04T16:23:30.067Z,10.63
2022-11-04T16:26:06.271Z,13.77
2022-11-04T16:28:38.498Z,11.93
2022-11-04T16:31:33.574Z,15.87
2022-11-04T16:34:00.892Z,13.57
2022-11-04T16:36:34.052Z,10.47
2022-11-04T16:39:04.831Z,10.77
2022-11-04T16:41:36.360Z,14.13
2022-11-04T16:44:05.358Z,10.67
2022-11-04T16:46:35.248Z,11.23
2022-11-04T16:49:02.132Z,10.70
2022-11-04T16:51:28.954Z,14.53
2022-11-04T16:53:55.825Z,10.43
2022-11-04T16:56:24.714Z,10.63
2022-11-04T16:58:52.657Z,13.90
2022-11-04T17:01:21.327Z,14.43
2022-11-04T17:03:48.298Z,10.17
2022-11-04T17:06:16.304Z,11.70
2022-11-04T17:08:43.698Z,13.43
2022-11-04T17:11:12.496Z,19.60
2022-11-04T17:13:39.715Z,15.77
2022-11-04T17:16:10.379Z,19.40
2022-11-04T17:18:37.388Z,17.33
2022-11-04T17:21:11.302Z,16.53
2022-11-04T17:23:38.332Z,19.53
2022-11-04T17:26:05.355Z,21.00
2022-11-04T17:28:33.549Z,21.17
2022-11-04T17:31:02.640Z,21.10
2022-11-04T17:33:29.649Z,21.07
2022-11-04T17:35:57.083Z,21.13
2022-11-04T17:38:24.057Z,20.50
2022-11-04T17:41:09.532Z,16.80
2022-11-04T17:43:54.918Z,19.23
2022-11-04T17:46:41.823Z,21.03
2022-11-04T17:49:12.844Z,19.60
2022-11-04T17:51:41.872Z,16.40
2022-11-04T17:54:10.648Z,14.60
2022-11-04T17:56:38.117Z,20.50
2022-11-04T17:59:05.374Z,20.87
2022-11-04T18:01:33.514Z,20.67
2022-11-04T18:04:00.452Z,18.63
2022-11-04T18:06:31.192Z,16.23
2022-11-04T18:08:58.301Z,20.30
2022-11-04T18:11:46.379Z,24.97
2022-11-04T18:14:17.050Z,21.87
2022-11-04T18:16:46.613Z,21.03
2022-11-04T18:19:14.320Z,19.97
2022-11-04T18:21:41.346Z,21.30
2022-11-04T18:24:08.752Z,23.47
2022-11-04T18:26:36.062Z,21.37
2022-11-04T18:29:03.712Z,19.70
2022-11-04T18:31:33.175Z,19.07
2022-11-04T18:34:02.199Z,20.77
2022-11-04T18:36:29.939Z,22.37
2022-11-04T18:38:57.515Z,19.73
2022-11-04T18:41:24.488Z,21.80
2022-11-04T18:43:51.760Z,29.30
2022-11-04T18:46:19.426Z,22.90
2022-11-04T18:48:50.713Z,26.33
2022-11-04T18:51:23.503Z,23.77
2022-11-04T18:53:51.484Z,29.07
2022-11-04T18:56:23.347Z,23.43
2022-11-04T18:58:51.304Z,19.50
2022-11-04T19:01:20.801Z,21.43
2022-11-04T19:03:48.731Z,23.17
2022-11-04T19:06:19.065Z,26.83
2022-11-04T19:08:47.120Z,21.43
2022-11-04T19:11:23.319Z,23.73
2022-11-04T19:13:58.800Z,32.73
2022-11-04T19:16:26.915Z,21.47
2022-11-04T19:18:55.110Z,22.97
2022-11-04T19:21:23.993Z,21.57
2022-11-04T19:23:51.249Z,27.33
2022-11-04T19:26:21.618Z,25.27
2022-11-04T19:28:49.980Z,24.93
2022-11-04T19:31:22.983Z,21.33
2022-11-04T19:33:50.704Z,34.40
2022-11-04T19:36:19.909Z,24.20
2022-11-04T19:38:47.347Z,24.17
2022-11-04T19:41:35.448Z,20.73
2022-11-04T19:44:04.692Z,30.07
2022-11-04T19:46:32.528Z,25.43
2022-11-04T19:49:00.702Z,21.10
2022-11-04T19:51:31.986Z,23.17
2022-11-04T19:53:59.453Z,22.13
2022-11-04T19:56:26.705Z,23.93
2022-11-04T19:58:53.996Z,18.73
2022-11-04T20:01:21.461Z,19.93
2022-11-04T20:03:48.594Z,26.60
2022-11-04T20:06:16.511Z,18.63
2022-11-04T20:08:45.602Z,21.00
2022-11-04T20:11:13.783Z,18.37
2022-11-04T20:13:47.348Z,16.30
2022-11-04T20:16:14.318Z,18.53
2022-11-04T20:18:41.191Z,21.10
2022-11-04T20:21:08.195Z,18.60
2022-11-04T20:23:36.146Z,17.93
2022-11-04T20:26:07.881Z,15.30
2022-11-04T20:28:34.772Z,12.63
2022-11-04T20:31:01.957Z,14.17
2022-11-04T20:33:29.056Z,14.70
2022-11-04T20:35:55.891Z,13.80
2022-11-04T20:38:23.739Z,14.37
2022-11-04T20:40:50.638Z,13.60
2022-11-04T20:43:17.538Z,24.67
2022-11-04T20:45:49.662Z,10.73
2022-11-04T20:48:19.034Z,12.93
2022-11-04T20:50:45.869Z,8.57
2022-11-04T20:53:12.883Z,16.83
2022-11-04T20:55:40.157Z,9.43
2022-11-04T20:58:07.244Z,10.90
2022-11-04T21:00:34.078Z,10.33
2022-11-04T21:03:00.834Z,11.30
2022-11-04T21:05:27.763Z,8.17
2022-11-04T21:07:55.269Z,10.47
2022-11-04T21:10:23.331Z,9.00
2022-11-04T21:12:52.062Z,10.27
2022-11-04T21:15:37.283Z,10.40
2022-11-04T21:18:04.286Z,12.70
2022-11-04T21:20:31.083Z,15.40
2022-11-04T21:22:57.972Z,15.13
2022-11-04T21:25:24.731Z,21.03
2022-11-04T21:27:52.353Z,14.53
2022-11-04T21:30:19.256Z,12.37
2022-11-04T21:32:46.205Z,12.33
2022-11-04T21:35:13.039Z,12.30
2022-11-04T21:37:39.915Z,8.27
2022-11-04T21:40:07.996Z,9.40
2022-11-04T21:42:34.994Z,8.03
2022-11-04T21:45:01.836Z,10.10
2022-11-04T21:47:29.524Z,8.57
2022-11-04T21:49:56.345Z,8.50
2022-11-04T21:52:23.267Z,7.13
2022-11-04T21:54:51.164Z,19.47
2022-11-04T21:57:18.235Z,14.10
2022-11-04T21:59:45.130Z,9.37
2022-11-04T22:02:12.268Z,12.87
2022-11-04T22:04:39.319Z,9.57
2022-11-04T22:07:06.503Z,9.57
2022-11-04T22:09:33.456Z,11.27
2022-11-04T22:12:00.319Z,8.37
2022-11-04T22:14:28.331Z,11.20
2022-11-04T22:16:55.481Z,10.57
2022-11-04T22:19:22.292Z,10.63
2022-11-04T22:21:49.086Z,11.37
2022-11-04T22:24:18.326Z,11.53
2022-11-04T22:26:46.061Z,10.07
2022-11-04T22:29:13.213Z,10.87
2022-11-04T22:31:41.692Z,9.53
2022-11-04T22:34:09.840Z,10.57
2022-11-04T22:36:38.002Z,8.83
2022-11-04T22:39:05.833Z,10.07
2022-11-04T22:41:35.637Z,9.50
2022-11-04T22:44:03.542Z,11.90
2022-11-04T22:46:31.975Z,8.53
2022-11-04T22:49:02.482Z,9.67
2022-11-04T22:51:31.439Z,13.60
2022-11-04T22:54:04.588Z,10.93
2022-11-04T22:56:33.980Z,13.10
2022-11-04T22:59:01.345Z,9.80
2022-11-04T23:01:28.654Z,8.67
2022-11-04T23:03:56.873Z,9.60
2022-11-04T23:06:24.978Z,12.63
2022-11-04T23:08:59.653Z,12.43
2022-11-04T23:11:47.481Z,9.13
2022-11-04T23:14:34.054Z,8.17
2022-11-04T23:17:19.709Z,10.77
2022-11-04T23:19:46.992Z,9.93
2022-11-04T23:22:32.827Z,11.00
2022-11-04T23:25:06.029Z,13.20
2022-11-04T23:27:59.447Z,13.80
2022-11-04T23:30:27.650Z,12.63
2022-11-04T23:33:40.935Z,18.77
2022-11-04T23:36:27.292Z,12.43
2022-11-04T23:38:54.599Z,14.20
2022-11-04T23:41:40.374Z,12.90
2022-11-04T23:44:27.597Z,12.53
2022-11-04T23:47:13.424Z,12.53
2022-11-04T23:49:59.214Z,13.37
2022-11-04T23:52:44.883Z,9.53
2022-11-04T23:55:30.853Z,21.63
2022-11-04T23:58:16.564Z,13.23
